Flight Track Log - Related Links

Times and Time Zones

All times are in EDT time to prevent confusion due to time zone crossing. See the SWA861 flight status page for this flight to view local times or setup timezone preferences in your user account.

Time Position Orientation Groundspeed Altitude Reporting Facility
EDT Latitude Longitude Course Direction KTS MPH feet Rate Location/Type
Sat 05:04:59 PM 26.0750 -80.1319 78° East 170 196 900  Level Miami Center
Sat 05:05:29 PM 26.0797 -80.1067 78° East 180 207 1,700 1,714 Climbing Miami Center
Sat 05:06:30 PM 26.1144 -80.0522 55° Northeast 262 302 3,500 2,410 Climbing Miami Center
Sat 05:07:31 PM 26.1825 -80.0886 334° Northwest 274 315 6,600 2,780 Climbing Miami Center
Sat 05:08:33 PM 26.2119 -80.1706 292° West 285 328 9,200 2,000 Climbing Miami Center
Sat 05:09:34 PM 26.2267 -80.2589 281° West 292 336 10,700 984 Climbing Miami Center
Sat 05:10:35 PM 26.1808 -80.3478 240° Southwest 350 403 11,200 1,525 Climbing Miami Center
Sat 05:11:36 PM 26.1119 -80.4269 226° Southwest 357 411 13,800 2,294 Climbing Miami Center
Sat 05:12:17 PM 26.0711 -80.4789 229° Southwest 364 419 15,100 1,248 Climbing Miami Center
Sat 05:13:17 PM 25.9756 -80.5406 210° Southwest 391 450 15,900 400 Climbing Miami Center
Sat 05:14:17 PM 25.8908 -80.5864 206° Southwest 402 463 15,900 700 Level Miami Center
Sat 05:15:17 PM 25.7869 -80.6433 206° Southwest 402 463 17,300 1,650 Climbing Miami Center
Sat 05:16:17 PM 25.6958 -80.6911 205° Southwest 402 463 19,200 2,050 Climbing Miami Center
Sat 05:17:17 PM 25.5836 -80.7544 207° Southwest 407 468 21,400 2,050 Climbing Miami Center
Sat 05:18:17 PM 25.4775 -80.8131 207° Southwest 418 481 23,300 2,350 Climbing Miami Center
Sat 05:19:17 PM 25.3739 -80.8647 204° Southwest 418 481 26,100 2,200 Climbing Miami Center
Sat 05:20:17 PM 25.3003 -80.9544 228° Southwest 397 457 27,700 1,600 Climbing Miami Center
Sat 05:21:17 PM 25.2781 -81.0753 259° West 385 443 29,300 1,450 Climbing Miami Center
Sat 05:22:17 PM 25.3142 -81.2031 287° West 384 442 30,600 1,150 Climbing Miami Center
Sat 05:23:17 PM 25.3481 -81.3283 287° West 409 471 31,600 750 Climbing Miami Center
Sat 05:24:17 PM 25.3919 -81.4564 291° West 427 491 32,100 900 Climbing Miami Center
Sat 05:25:17 PM 25.4572 -81.5761 301° West 441 507 33,400 1,250 Climbing Miami Center
Sat 05:26:17 PM 25.5122 -81.6842 299° West 447 514 34,600 1,200 Climbing Miami Center
Sat 05:27:17 PM 25.5750 -81.8064 300° West 457 526 35,800 700 Climbing Miami Center
Sat 05:28:17 PM 25.6356 -81.9239 300° West 457 526 36,000 100 Climbing Miami Center
Sat 05:29:17 PM 25.6961 -82.0417 300° West 447 514 36,000  Level Miami Center
Sat 05:30:17 PM 25.7569 -82.1572 300° West 447 514 36,000  Level Miami Center
Sat 05:31:17 PM 25.8172 -82.2775 299° West 447 514 36,000  Level Miami Center
Sat 05:32:17 PM 25.8775 -82.3933 300° West 447 514 36,000  Level Miami Center
Sat 05:33:17 PM 25.9356 -82.5114 299° West 442 509 36,000  Level Miami Center
Sat 05:34:17 PM 25.9978 -82.6322 300° West 448 516 36,000  Level Miami Center
Sat 05:35:17 PM 26.0600 -82.7483 301° West 448 516 36,000  Level Miami Center
Sat 05:36:17 PM 26.1242 -82.8625 302° West 448 516 36,000  Level Miami Center
Sat 05:37:17 PM 26.1906 -82.9747 303° West 442 509 36,000  Level Miami Center
Sat 05:38:17 PM 26.2561 -83.0961 301° West 447 514 36,000  Level Miami Center
Sat 05:39:17 PM 26.3222 -83.2106 303° West 447 514 36,000  Level Miami Center
Sat 05:40:17 PM 26.3881 -83.3300 302° West 447 514 36,000  Level Miami Center
Sat 05:41:17 PM 26.4575 -83.4519 302° West 459 528 36,000  Level Miami Center
Sat 05:42:17 PM 26.5231 -83.5717 301° West 459 528 36,000  Level Miami Center
Sat 05:43:17 PM 26.5906 -83.6914 302° West 459 528 36,000  Level Miami Center
Sat 05:44:17 PM 26.6600 -83.8117 303° West 459 528 36,000  Level Miami Center
Sat 05:45:17 PM 26.7231 -83.9292 301° West 459 528 36,000  Level Miami Center
Sat 05:46:17 PM 26.7900 -84.0517 301° West 459 528 36,000  Level Miami Center
Sat 05:47:17 PM 26.8550 -84.1719 301° West 459 528 36,000  Level Miami Center
Sat 05:48:17 PM 26.9239 -84.2928 303° West 459 528 36,000  Level Miami Center
Sat 05:49:17 PM 26.9864 -84.4108 301° West 459 528 36,000  Level Miami Center
Sat 05:50:17 PM 27.0511 -84.5314 301° West 464 534 36,000  Level Miami Center
Sat 05:52:27 PM 27.1950 -84.7889 302° West 449 517 36,000  Level Houston Center
Sat 05:53:29 PM 27.2597 -84.9081 301° West 448 516 36,000  Level Houston Center
Sat 05:54:30 PM 27.3242 -85.0269 301° West 447 514 36,000  Level Houston Center
Sat 05:55:32 PM 27.3939 -85.1567 301° West 448 516 36,000  Level Houston Center
Sat 05:56:33 PM 27.4581 -85.2769 301° West 448 516 36,000  Level Houston Center
Sat 05:57:35 PM 27.5214 -85.3969 301° West 446 513 36,000  Level Houston Center
Sat 05:58:30 PM 27.5911 -85.5286 301° West 451 519 36,000  Level Jacksonville Center
Sat 05:59:30 PM 27.6531 -85.6497 300° West 456 525 36,000  Level Jacksonville Center
Sat 06:00:30 PM 27.7172 -85.7708 301° West 447 514 36,000  Level Jacksonville Center
Sat 06:01:30 PM 27.7833 -85.8947 301° West 447 514 36,000  Level Jacksonville Center
Sat 06:02:30 PM 27.8472 -86.0139 301° West 448 516 36,000  Level Jacksonville Center
Sat 06:03:30 PM 27.9089 -86.1308 301° West 448 516 36,000  Level Jacksonville Center
Sat 06:04:30 PM 27.9728 -86.2456 302° West 442 509 36,000  Level Jacksonville Center
Sat 06:05:30 PM 28.0361 -86.3747 299° West 448 516 36,000  Level Jacksonville Center
Sat 06:06:30 PM 28.0997 -86.4922 302° West 453 521 36,000  Level Jacksonville Center
Sat 06:07:30 PM 28.1667 -86.6239 300° West 455 524 36,000  Level Jacksonville Center
Sat 06:08:30 PM 28.2322 -86.7442 302° West 457 526 36,000  Level Jacksonville Center
Sat 06:09:30 PM 28.2931 -86.8667 299° West 457 526 36,000  Level Jacksonville Center
Sat 06:10:30 PM 28.3561 -86.9869 301° West 452 520 36,000  Level Jacksonville Center
Sat 06:11:30 PM 28.4208 -87.1125 300° West 451 519 36,000  Level Jacksonville Center
Sat 06:12:57 PM 28.5058 -87.2781 300° West 456 525 36,000  Level Houston Center
Sat 06:13:58 PM 28.5678 -87.4008 300° West 449 517 36,000  Level Houston Center
Sat 06:15:00 PM 28.6297 -87.5219 300° West 445 512 36,000  Level Houston Center
Sat 06:16:01 PM 28.6914 -87.6439 300° West 443 510 36,000  Level Houston Center
Sat 06:17:03 PM 28.7511 -87.7639 300° West 438 504 36,000  Level Houston Center
Sat 06:18:04 PM 28.8242 -87.9081 300° West 436 502 36,000  Level Houston Center
Sat 06:19:06 PM 28.8850 -88.0283 300° West 438 504 36,000  Level Houston Center
Sat 06:20:07 PM 28.9464 -88.1514 300° West 438 504 36,000  Level Houston Center
Sat 06:21:09 PM 29.0075 -88.2739 300° West 444 511 36,000  Level Houston Center
Sat 06:22:11 PM 29.0675 -88.3961 299° West 441 507 36,000  Level Houston Center
Sat 06:23:12 PM 29.1278 -88.5172 300° West 438 504 36,000  Level Houston Center
Sat 06:24:14 PM 29.1878 -88.6383 300° West 438 504 36,000  Level Houston Center
Sat 06:25:15 PM 29.2481 -88.7614 299° West 443 510 36,000  Level Houston Center
Sat 06:26:17 PM 29.3094 -88.8847 300° West 445 512 36,000  Level Houston Center
Sat 06:27:19 PM 29.3831 -89.0350 299° West 449 517 36,000  Level Houston Center
Sat 06:28:20 PM 29.4433 -89.1594 299° West 448 516 36,000 634 Level Houston Center
Sat 06:29:22 PM 29.5033 -89.2842 299° West 446 513 37,300 968 Climbing Houston Center
Sat 06:30:24 PM 29.5619 -89.4050 299° West 436 502 38,000 341 Climbing Houston Center
Sat 06:31:25 PM 29.6214 -89.5272 299° West 436 502 38,000  Level Houston Center
Sat 06:32:27 PM 29.6806 -89.6503 299° West 439 505 38,000  Level Houston Center
Sat 06:33:29 PM 29.7392 -89.7750 298° West 441 507 38,000  Level Houston Center
Sat 06:34:30 PM 29.7992 -89.8992 299° West 443 510 38,000  Level Houston Center
Sat 06:35:33 PM 29.8722 -90.0464 300° West 442 509 38,000  Level Houston Center
Sat 06:36:34 PM 29.9422 -90.1639 305° West 444 511 38,000  Level Houston Center
Sat 06:37:35 PM 30.0119 -90.2833 304° West 446 513 38,000  Level Houston Center
Sat 06:38:37 PM 30.0803 -90.4011 304° West 442 509 38,000  Level Houston Center
Sat 06:39:39 PM 30.1472 -90.5164 304° West 436 502 38,000  Level Houston Center
Sat 06:40:40 PM 30.2106 -90.6314 303° West 428 493 38,000  Level Houston Center
Sat 06:41:42 PM 30.2753 -90.7461 303° West 423 487 38,000  Level Houston Center
Sat 06:42:43 PM 30.3406 -90.8614 303° West 426 490 38,000  Level Houston Center
Sat 06:43:45 PM 30.4072 -90.9789 303° West 434 499 38,000  Level Houston Center
Sat 06:44:47 PM 30.4869 -91.1183 304° West 431 496 38,000  Level Houston Center
Sat 06:45:48 PM 30.5522 -91.2350 303° West 432 497 38,000  Level Houston Center
Sat 06:46:50 PM 30.6169 -91.3514 303° West 429 494 38,000  Level Houston Center
Sat 06:47:51 PM 30.6825 -91.4622 305° West 427 491 38,000  Level Houston Center
Sat 06:48:53 PM 30.7761 -91.5556 319° Northwest 441 507 38,000  Level Houston Center
Sat 06:49:55 PM 30.8736 -91.6406 323° Northwest 440 506 38,000  Level Houston Center
Sat 06:50:56 PM 30.9825 -91.7547 318° Northwest 444 511 38,000  Level Houston Center
Sat 06:51:58 PM 31.0414 -91.8797 299° West 437 503 38,000  Level Houston Center
Sat 06:52:59 PM 31.1006 -92.0036 299° West 437 503 38,000  Level Houston Center
Sat 06:54:01 PM 31.1556 -92.1208 299° West 433 498 38,000  Level Houston Center
Sat 06:55:03 PM 31.2144 -92.2444 299° West 436 502 38,000  Level Houston Center
Sat 06:56:04 PM 31.2731 -92.3664 299° West 434 499 38,000  Level Houston Center
Sat 06:57:06 PM 31.3436 -92.5181 299° West 439 505 38,000  Level Houston Center
Sat 06:58:08 PM 31.4044 -92.6453 299° West 445 512 38,000  Level Houston Center
Sat 06:59:09 PM 31.4647 -92.7725 299° West 447 514 38,000  Level Houston Center
Sat 07:00:11 PM 31.5228 -92.8969 299° West 441 507 38,000  Level Houston Center
Sat 07:01:12 PM 31.5814 -93.0228 299° West 441 507 38,000  Level Houston Center
Sat 07:02:14 PM 31.6414 -93.1497 299° West 445 512 38,000  Level Houston Center
Sat 07:03:15 PM 31.7097 -93.3000 298° West 444 511 38,000  Level Houston Center
Sat 07:04:17 PM 31.7697 -93.4239 300° West 441 507 38,000  Level Houston Center
Sat 07:05:18 PM 31.8267 -93.5506 298° West 440 506 38,000  Level Houston Center
Sat 07:06:20 PM 31.8839 -93.6758 298° West 438 504 38,000  Level Houston Center
Sat 07:07:33 PM 31.9431 -93.8025 299° West 439 505 38,000  Level Houston Center
Sat 07:08:37 PM 32.0139 -93.9636 297° West 439 505 38,000  Level Fort Worth Center
Sat 07:09:36 PM 32.0736 -94.0914 299° West 439 505 38,000  Level Fort Worth Center
Sat 07:10:37 PM 32.1311 -94.2194 298° West 444 511 38,000  Level Fort Worth Center
Sat 07:11:37 PM 32.1911 -94.3619 296° West 449 517 38,000  Level Fort Worth Center
Sat 07:12:37 PM 32.2486 -94.4953 297° West 440 506 38,000  Level Fort Worth Center
Sat 07:13:37 PM 32.2825 -94.6194 288° West 445 512 38,000  Level Fort Worth Center
Sat 07:14:37 PM 32.3211 -94.7608 288° West 450 518 38,000  Level Fort Worth Center
Sat 07:15:37 PM 32.3617 -94.9072 288° West 450 518 38,000  Level Fort Worth Center
Sat 07:16:37 PM 32.4064 -95.0611 289° West 457 526 38,000  Level Fort Worth Center
Sat 07:17:37 PM 32.4444 -95.2003 288° West 457 526 38,000  Level Fort Worth Center
Sat 07:18:37 PM 32.4864 -95.3397 290° West 457 526 38,000  Level Fort Worth Center
Sat 07:19:37 PM 32.5219 -95.4719 288° West 463 533 38,000  Level Fort Worth Center
Sat 07:20:37 PM 32.5639 -95.6264 288° West 457 526 38,000  Level Fort Worth Center
Sat 07:21:37 PM 32.6033 -95.7686 288° West 457 526 38,000  Level Fort Worth Center
Sat 07:22:37 PM 32.6386 -95.8986 288° West 457 526 38,000  Level Fort Worth Center
Sat 07:23:37 PM 32.6800 -96.0533 288° West 457 526 38,000  Level Fort Worth Center
Sat 07:24:37 PM 32.7167 -96.1861 288° West 462 532 38,000  Level Fort Worth Center
Sat 07:25:37 PM 32.7536 -96.3289 287° West 462 532 38,000  Level Fort Worth Center
Sat 07:26:37 PM 32.7922 -96.4719 288° West 462 532 38,000  Level Fort Worth Center
Sat 07:27:37 PM 32.8308 -96.6147 288° West 462 532 38,000  Level Fort Worth Center
Sat 07:28:37 PM 32.8692 -96.7581 288° West 462 532 38,000  Level Fort Worth Center
Sat 07:29:37 PM 32.9097 -96.9136 287° West 462 532 38,000  Level Fort Worth Center
Sat 07:30:37 PM 32.9433 -97.0447 287° West 462 532 38,000  Level Fort Worth Center
Sat 07:31:37 PM 32.9772 -97.1756 287° West 462 532 38,000  Level Fort Worth Center
Sat 07:32:37 PM 33.0192 -97.3367 287° West 462 532 38,000  Level Fort Worth Center
Sat 07:33:37 PM 33.0608 -97.4903 288° West 480 552 38,000  Level Fort Worth Center
Sat 07:34:37 PM 33.0961 -97.6367 286° West 470 541 38,000  Level Fort Worth Center
Sat 07:35:37 PM 33.1333 -97.7806 287° West 463 533 38,000  Level Fort Worth Center
Sat 07:36:48 PM 33.1725 -97.9247 288° West 458 527 38,000  Level Fort Worth Center
Sat 07:37:49 PM 33.2156 -98.1011 286° West 458 527 38,000  Level Fort Worth Center
Sat 07:38:49 PM 33.2500 -98.2481 286° West 458 527 38,000  Level Fort Worth Center
Sat 07:39:49 PM 33.2886 -98.3950 287° West 458 527 38,000  Level Fort Worth Center
Sat 07:40:49 PM 33.3231 -98.5347 286° West 451 519 38,000  Level Fort Worth Center
Sat 07:41:49 PM 33.3572 -98.6794 286° West 451 519 38,000  Level Fort Worth Center
Sat 07:42:49 PM 33.3931 -98.8267 286° West 456 525 38,000  Level Fort Worth Center
Sat 07:43:49 PM 33.4289 -98.9717 287° West 456 525 38,000  Level Fort Worth Center
Sat 07:44:49 PM 33.4647 -99.1217 286° West 456 525 38,000  Level Fort Worth Center
Sat 07:45:49 PM 33.5022 -99.2667 287° West 456 525 38,000  Level Fort Worth Center
Sat 07:46:49 PM 33.5375 -99.4122 286° West 456 525 38,000  Level Fort Worth Center
Sat 07:47:49 PM 33.5706 -99.5575 285° West 456 525 38,000  Level Fort Worth Center
Sat 07:48:49 PM 33.6056 -99.7031 286° West 456 525 38,000  Level Fort Worth Center
Sat 07:49:49 PM 33.6403 -99.8511 286° West 456 525 38,000  Level Fort Worth Center
Sat 07:50:49 PM 33.6728 -99.9967 285° West 456 525 38,000  Level Fort Worth Center
Sat 07:51:49 PM 33.7053 -100.1450 285° West 456 525 38,000  Level Fort Worth Center
Sat 07:52:49 PM 33.7417 -100.2933 286° West 456 525 38,000  Level Fort Worth Center
Sat 07:53:49 PM 33.7736 -100.4394 285° West 456 525 38,000  Level Fort Worth Center
Sat 07:54:49 PM 33.8094 -100.5883 286° West 456 525 38,000  Level Fort Worth Center
Sat 07:55:49 PM 33.8433 -100.7369 285° West 456 525 38,000  Level Fort Worth Center
Sat 07:56:49 PM 33.8747 -100.8883 284° West 456 525 38,000  Level Fort Worth Center
Sat 07:57:49 PM 33.9139 -101.0500 286° West 456 525 38,000  Level Fort Worth Center
Sat 07:58:49 PM 33.9450 -101.1989 284° West 463 533 38,000  Level Fort Worth Center
Sat 07:59:49 PM 33.9761 -101.3356 285° West 463 533 38,000  Level Fort Worth Center
Sat 08:00:49 PM 34.0125 -101.5000 285° West 458 527 38,000  Level Fort Worth Center
Sat 08:01:49 PM 34.0436 -101.6394 285° West 463 533 38,000  Level Fort Worth Center
Sat 08:02:49 PM 34.0794 -101.8067 285° West 469 540 38,000  Level Fort Worth Center
Sat 08:03:49 PM 34.1094 -101.9611 283° West 476 548 38,000  Level Fort Worth Center
Sat 08:04:36 PM 34.1311 -102.0572 285° West 472 543 38,000  Level Albuquerque Center
Sat 08:05:37 PM 34.1633 -102.2086 284° West 469 540 38,000  Level Albuquerque Center
Sat 08:06:38 PM 34.1956 -102.3586 285° West 465 535 38,000  Level Albuquerque Center
Sat 08:07:39 PM 34.2314 -102.5311 284° West 463 533 38,000  Level Albuquerque Center
Sat 08:08:41 PM 34.2631 -102.6833 284° West 464 534 38,000  Level Albuquerque Center
Sat 08:09:42 PM 34.2953 -102.8339 285° West 464 534 38,000  Level Albuquerque Center
Sat 08:10:43 PM 34.3258 -102.9836 284° West 460 529 38,000  Level Albuquerque Center
Sat 08:11:44 PM 34.3589 -103.1508 284° West 459 528 38,000  Level Albuquerque Center
Sat 08:12:45 PM 34.3906 -103.3047 284° West 464 534 38,000  Level Albuquerque Center
Sat 08:13:47 PM 34.4219 -103.4556 284° West 461 531 38,000  Level Albuquerque Center
Sat 08:14:48 PM 34.4728 -103.5989 293° West 462 532 38,000  Level Albuquerque Center
Sat 08:15:49 PM 34.5328 -103.7344 298° West 456 525 38,000  Level Albuquerque Center
Sat 08:16:50 PM 34.5900 -103.8708 297° West 451 519 38,000  Level Albuquerque Center
Sat 08:17:51 PM 34.6492 -104.0058 298° West 449 517 38,000  Level Albuquerque Center
Sat 08:18:53 PM 34.7042 -104.1408 296° West 444 511 38,000  Level Albuquerque Center
Sat 08:19:54 PM 34.7514 -104.2819 292° West 444 511 38,000  Level Albuquerque Center
Sat 08:20:55 PM 34.7997 -104.4222 293° West 443 510 38,000  Level Albuquerque Center
Sat 08:21:56 PM 34.8494 -104.5617 294° West 444 511 38,000  Level Albuquerque Center
Sat 08:22:58 PM 34.8983 -104.7028 293° West 445 512 38,000  Level Albuquerque Center
Sat 08:23:59 PM 34.9472 -104.8431 293° West 444 511 38,000  Level Albuquerque Center
Sat 08:25:00 PM 34.9872 -104.9872 289° West 445 512 38,000  Level Albuquerque Center
Sat 08:26:02 PM 34.9986 -105.1381 275° West 446 513 38,000  Level Albuquerque Center
Sat 08:27:03 PM 35.0006 -105.2900 271° West 444 511 38,000  Level Albuquerque Center
Sat 08:28:04 PM 35.0000 -105.4428 270° West 445 512 38,000  Level Albuquerque Center
Sat 08:29:05 PM 35.0019 -105.5944 271° West 444 511 38,000  Level Albuquerque Center
Sat 08:30:07 PM 35.0014 -105.7453 270° West 442 509 38,000  Level Albuquerque Center
Sat 08:31:08 PM 35.0011 -105.8933 270° West 446 513 38,000  Level Albuquerque Center
Sat 08:32:09 PM 35.0022 -106.0767 270° West 450 518 38,000  Level Albuquerque Center
Sat 08:33:11 PM 35.0025 -106.2292 270° West 451 519 38,000  Level Albuquerque Center
Sat 08:34:12 PM 35.0019 -106.3811 270° West 449 517 38,000  Level Albuquerque Center
Sat 08:35:13 PM 35.0011 -106.5325 270° West 447 514 38,000  Level Albuquerque Center
Sat 08:36:15 PM 34.9997 -106.6817 269° West 450 518 38,000  Level Albuquerque Center
Sat 08:37:16 PM 35.0000 -106.8453 270° West 438 504 38,000  Level Albuquerque Center
Sat 08:38:17 PM 34.9997 -106.9869 270° West 436 502 38,000  Level Albuquerque Center
Sat 08:39:18 PM 34.9994 -107.1281 270° West 435 501 38,000  Level Albuquerque Center
Sat 08:40:20 PM 34.9961 -107.2900 269° West 445 512 38,000  Level Albuquerque Center
Sat 08:41:21 PM 34.9947 -107.4375 269° West 440 506 38,000  Level Albuquerque Center
Sat 08:42:22 PM 34.9931 -107.5872 269° West 440 506 38,000  Level Albuquerque Center
Sat 08:43:24 PM 34.9914 -107.7367 269° West 441 507 38,000  Level Albuquerque Center
Sat 08:44:25 PM 34.9892 -107.8939 269° West 444 511 38,000  Level Albuquerque Center
Sat 08:45:26 PM 34.9878 -108.0608 269° West 442 509 38,000  Level Albuquerque Center
Sat 08:46:27 PM 34.9856 -108.2047 269° West 442 509 38,000  Level Albuquerque Center
Sat 08:47:29 PM 35.0058 -108.3453 280° West 438 504 38,000  Level Albuquerque Center
Sat 08:48:30 PM 35.0283 -108.5117 279° West 443 510 38,000  Level Albuquerque Center
Sat 08:49:31 PM 35.0581 -108.6464 285° West 429 494 38,000  Level Albuquerque Center
Sat 08:50:32 PM 35.1086 -108.8069 291° West 442 509 38,000  Level Albuquerque Center
Sat 08:51:34 PM 35.1517 -108.9400 292° West 440 506 38,000  Level Albuquerque Center
Sat 08:52:35 PM 35.1975 -109.0719 293° West 439 505 38,000  Level Albuquerque Center
Sat 08:53:36 PM 35.2486 -109.2292 292° West 442 509 38,000  Level Albuquerque Center
Sat 08:54:38 PM 35.2942 -109.3628 293° West 442 509 38,000  Level Albuquerque Center
Sat 08:55:39 PM 35.3436 -109.4942 295° West 442 509 38,000  Level Albuquerque Center
Sat 08:56:40 PM 35.4131 -109.6378 301° West 438 504 38,000  Level Albuquerque Center
Sat 08:57:41 PM 35.4797 -109.7572 304° West 440 506 38,000  Level Albuquerque Center
Sat 08:58:43 PM 35.5628 -109.8922 307° West 440 506 38,000  Level Albuquerque Center
Sat 08:59:44 PM 35.6267 -110.0144 303° West 445 512 38,000  Level Albuquerque Center
Sat 09:01:35 PM 35.7256 -110.2556 297° West 438 504 38,000  Level Los Angeles Center
Sat 09:02:36 PM 35.7594 -110.3978 286° West 435 501 38,000  Level Los Angeles Center
Sat 09:03:38 PM 35.7550 -110.5467 268° West 434 499 38,000  Level Los Angeles Center
Sat 09:04:39 PM 35.7208 -110.6886 254° West 433 498 38,000  Level Los Angeles Center
Sat 09:05:41 PM 35.6811 -110.8614 254° West 438 504 38,000  Level Los Angeles Center
Sat 09:06:42 PM 35.6617 -111.0089 261° West 437 503 38,000  Level Los Angeles Center
Sat 09:07:44 PM 35.6608 -111.1597 270° West 440 506 38,000  Level Los Angeles Center
Sat 09:08:45 PM 35.6606 -111.3094 270° West 439 505 38,000 -732 Level Los Angeles Center
Sat 09:09:47 PM 35.6589 -111.4578 269° West 435 501 36,500 -1,902 Descending Los Angeles Center
Sat 09:10:48 PM 35.6575 -111.6050 269° West 432 497 34,100 -2,262 Descending Los Angeles Center
Sat 09:11:49 PM 35.6567 -111.7575 270° West 429 494 31,900 -2,000 Descending Los Angeles Center
Sat 09:12:51 PM 35.6550 -111.8989 269° West 420 483 30,000 -927 Descending Los Angeles Center
Sat 09:13:52 PM 35.6528 -112.0119 269° West 416 479 30,000 -448 Level Los Angeles Center
Sat 09:15:05 PM 35.6508 -112.1917 269° West 441 507 29,000 -933 Descending Los Angeles Center
Sat 09:16:07 PM 35.6483 -112.3769 269° West 454 522 27,900 -1,122 Descending Los Angeles Center
Sat 09:17:08 PM 35.6453 -112.5583 269° West 450 518 26,700 -1,122 Descending Los Angeles Center
Sat 09:18:10 PM 35.6425 -112.7086 269° West 441 507 25,600 -1,024 Descending Los Angeles Center
Sat 09:19:11 PM 35.6406 -112.8611 269° West 445 512 24,600 -927 Descending Los Angeles Center
Sat 09:20:13 PM 35.6364 -113.0000 268° West 436 502 23,700 -927 Descending Los Angeles Center
Sat 09:21:14 PM 35.6339 -113.1444 269° West 426 490 22,700 -1,328 Descending Los Angeles Center
Sat 09:22:15 PM 35.6311 -113.2856 269° West 426 490 21,000 -1,415 Descending Los Angeles Center
Sat 09:23:17 PM 35.6269 -113.4531 268° West 416 479 19,800 -1,073 Descending Los Angeles Center
Sat 09:24:18 PM 35.6294 -113.5906 271° West 410 472 18,800 -1,082 Descending Los Angeles Center
Sat 09:25:19 PM 35.6506 -113.7244 281° West 404 465 17,600 -1,073 Descending Los Angeles Center
Sat 09:26:21 PM 35.6683 -113.8572 279° West 396 456 16,600 -976 Descending Los Angeles Center
Sat 09:27:22 PM 35.6869 -113.9844 280° West 385 443 15,600 -1,073 Descending Los Angeles Center
Sat 09:28:24 PM 35.7078 -114.1339 280° West 373 429 14,400 -1,405 Descending Los Angeles Center
Sat 09:29:13 PM 35.7256 -114.2411 282° West 383 441 13,000 -1,255 Descending Los Angeles Center
Sat 09:30:14 PM 35.7411 -114.3581 279° West 356 410 12,100 -744 Descending Los Angeles Center
Sat 09:31:14 PM 35.8128 -114.4161 327° Northwest 312 359 11,500 -520 Descending Los Angeles Center
Sat 09:32:21 PM 35.8953 -114.4467 343° North 291 335 11,000 -188 Descending Los Angeles Center
Sat 09:33:22 PM 35.9739 -114.4597 352° North 287 330 11,100 -574 Climbing Los Angeles Center
Sat 09:34:16 PM 36.0461 -114.4728 352° North 288 331 9,900 -1,321 Descending Los Angeles Center
Sat 09:35:11 PM 36.1197 -114.4825 354° North 289 333 8,700 -1,241 Descending Los Angeles Center
Sat 09:36:12 PM 36.1814 -114.5361 325° Northwest 284 327 7,500 -843 Descending Los Angeles Center
Sat 09:37:12 PM 36.2033 -114.6247 287° West 276 318 7,000 -438 Descending Los Angeles Center
Sat 09:37:48 PM 36.1967 -114.6456 248° West 274 315 6,800 -806 Descending Los Angeles Center
Sat 09:38:19 PM 36.1847 -114.7164 258° West 249 287 6,100 -787 Descending Los Angeles Center
Sat 09:38:49 PM 36.1761 -114.7428 248° West 255 293 6,000 -65 Descending Los Angeles Center
Sat 09:39:51 PM 36.1614 -114.8158 256° West 237 273 6,000  Level Los Angeles Center
Sat 09:40:52 PM 36.1461 -114.8869 255° West 219 252 6,000 -49 Level Los Angeles Center
Sat 09:41:53 PM 36.1314 -114.9619 256° West 195 224 5,900 -585 Descending Los Angeles Center
Sat 09:42:55 PM 36.1353 -115.0250 274° West 184 212 4,800 -1,171 Descending Los Angeles Center
Sat 09:43:56 PM 36.1403 -115.0844 276° West 180 207 3,500 -976 Descending Los Angeles Center
Sat 09:44:58 PM 36.1275 -115.1339 252° West 163 188 2,800 -585 Descending Los Angeles Center
Sat 09:45:59 PM 36.0967 -115.1514 205° Southwest 153 176 2,300 -492 Descending Los Angeles Center
Sat 09:47:00 PM 36.0801 -115.1523 270° West  Level Estimated

Login

Don't have an account? Register now (free) for customized features, flight alerts, and more!